Time;durP1;ratioP1;P1;durP2;ratioP2;P2;SDS_P1;SDS_P2;PMS_P1;PMS_P2;Temp;Humidity;BMP_temperature;BMP_pressure;BME280_temperature;BME280_humidity;BME280_pressure;Samples;Min_cycle;Max_cycle;Signal;HPM_P1;HPM_P2
2022/04/14 00:01:37;;;;;;;32.47;21.50;;;10.90;99.90;;;;;;5066518;28;20463;-68
2022/04/14 00:04:02;;;;;;;30.27;20.33;;;10.80;99.90;;;;;;5057176;28;20050;-68
2022/04/14 00:06:28;;;;;;;27.73;18.85;;;10.80;99.90;;;;;;5069577;28;20075;-68
2022/04/14 00:08:53;;;;;;;38.45;21.25;;;10.80;99.90;;;;;;5067623;28;20040;-68
2022/04/14 00:11:20;;;;;;;33.22;19.38;;;10.80;99.90;;;;;;5067803;28;20076;-68
2022/04/14 00:13:46;;;;;;;34.03;21.27;;;10.70;99.90;;;;;;5071994;28;20033;-68
2022/04/14 00:16:12;;;;;;;30.83;19.35;;;10.70;99.90;;;;;;5072183;28;20049;-68
2022/04/14 00:18:38;;;;;;;35.38;19.67;;;10.70;99.90;;;;;;5071433;28;20098;-68
2022/04/14 00:21:04;;;;;;;28.98;20.30;;;10.70;99.90;;;;;;5071430;28;20093;-68
2022/04/14 00:23:30;;;;;;;39.72;21.67;;;10.70;99.90;;;;;;5071414;28;20051;-68
2022/04/14 00:25:56;;;;;;;34.28;20.48;;;10.70;99.90;;;;;;5070389;28;20048;-67
2022/04/14 00:28:22;;;;;;;29.23;18.90;;;10.60;99.90;;;;;;5072381;28;20672;-68
2022/04/14 00:30:47;;;;;;;26.65;18.50;;;10.60;99.90;;;;;;5071260;28;20048;-68
2022/04/14 00:33:13;;;;;;;31.48;19.98;;;10.60;99.90;;;;;;5060972;28;20040;-68
2022/04/14 00:35:39;;;;;;;26.85;19.75;;;10.60;99.90;;;;;;5070357;28;20045;-68
2022/04/14 00:38:04;;;;;;;32.55;19.65;;;10.60;99.90;;;;;;5070467;28;20049;-68
2022/04/14 00:40:30;;;;;;;33.78;19.75;;;10.60;99.90;;;;;;5065091;28;20045;-68
2022/04/14 00:42:56;;;;;;;43.03;19.67;;;10.60;99.90;;;;;;5063142;28;20049;-68
2022/04/14 00:45:21;;;;;;;27.77;18.35;;;10.60;99.90;;;;;;5069483;28;20048;-68
2022/04/14 00:47:48;;;;;;;33.05;19.55;;;10.60;99.90;;;;;;5071145;28;20041;-68
2022/04/14 00:50:13;;;;;;;25.80;17.08;;;10.60;99.90;;;;;;5069908;28;20045;-68
2022/04/14 00:52:46;;;;;;;30.58;18.77;;;10.60;99.90;;;;;;5068942;28;20044;-68
2022/04/14 00:55:13;;;;;;;25.10;17.70;;;10.60;99.90;;;;;;5070148;28;20128;-68
2022/04/14 00:57:42;;;;;;;29.60;17.13;;;10.60;99.90;;;;;;5069394;28;20131;-68
2022/04/14 01:00:08;;;;;;;22.98;16.75;;;10.50;99.90;;;;;;5070704;28;20245;-68
2022/04/14 01:02:34;;;;;;;26.88;17.40;;;10.50;99.90;;;;;;5069654;28;20075;-68
2022/04/14 01:05:02;;;;;;;26.08;17.45;;;10.50;99.90;;;;;;5066797;28;20498;-68
2022/04/14 01:07:29;;;;;;;26.55;18.17;;;10.50;99.90;;;;;;5059640;28;20036;-68
2022/04/14 01:09:56;;;;;;;22.23;16.73;;;10.40;99.90;;;;;;5064162;28;20043;-68
2022/04/14 01:12:23;;;;;;;29.15;18.23;;;10.40;99.90;;;;;;5071043;28;20050;-68
2022/04/14 01:14:49;;;;;;;28.50;18.35;;;10.40;99.90;;;;;;5058743;28;20041;-68
2022/04/14 01:17:14;;;;;;;24.92;17.80;;;10.40;99.90;;;;;;5048740;28;20048;-68
2022/04/14 01:19:40;;;;;;;29.38;18.30;;;10.40;99.90;;;;;;5068167;28;20193;-68
2022/04/14 01:22:30;;;;;;;24.33;17.15;;;10.30;99.90;;;;;;5067671;28;20881;-68
2022/04/14 01:24:58;;;;;;;30.02;18.85;;;10.30;99.90;;;;;;5056861;28;20390;-68
2022/04/14 01:27:24;;;;;;;24.85;17.13;;;10.40;99.90;;;;;;5064100;28;20052;-68
2022/04/14 01:29:53;;;;;;;23.00;16.33;;;10.30;99.90;;;;;;5070305;28;20040;-68
2022/04/14 01:32:19;;;;;;;26.20;17.70;;;10.20;99.90;;;;;;5051643;28;20048;-68
2022/04/14 01:34:46;;;;;;;21.65;15.40;;;10.20;99.90;;;;;;5069820;28;20127;-68
2022/04/14 01:37:12;;;;;;;25.38;16.90;;;10.20;99.90;;;;;;5068896;28;20047;-68
2022/04/14 01:39:38;;;;;;;27.92;17.98;;;10.10;99.90;;;;;;5069689;28;20528;-68
2022/04/14 01:42:04;;;;;;;31.08;18.30;;;10.10;99.90;;;;;;5069804;28;20045;-68
2022/04/14 01:44:31;;;;;;;30.73;18.02;;;10.10;99.90;;;;;;5069419;28;20048;-68
2022/04/14 01:46:57;;;;;;;34.67;17.95;;;10.00;99.90;;;;;;5067658;28;20141;-68
2022/04/14 01:49:22;;;;;;;27.27;20.15;;;10.00;99.90;;;;;;5069446;28;20533;-68
2022/04/14 01:51:48;;;;;;;27.05;17.92;;;9.90;99.90;;;;;;5065468;28;20047;-68
2022/04/14 01:54:14;;;;;;;26.60;19.80;;;10.00;99.90;;;;;;5069191;28;20048;-68
2022/04/14 01:56:41;;;;;;;32.75;19.35;;;10.00;99.90;;;;;;5067868;28;20460;-68
2022/04/14 01:59:07;;;;;;;33.67;18.67;;;9.90;99.90;;;;;;5068786;28;20037;-68
2022/04/14 02:01:33;;;;;;;23.52;17.63;;;9.90;99.90;;;;;;5069242;28;20040;-68
2022/04/14 02:04:02;;;;;;;36.00;20.60;;;9.90;99.90;;;;;;5068838;28;20048;-68
2022/04/14 02:06:29;;;;;;;28.60;19.48;;;9.90;99.90;;;;;;5067821;28;20498;-68
2022/04/14 02:08:55;;;;;;;30.23;20.35;;;9.90;99.90;;;;;;5052045;28;20040;-68
2022/04/14 02:11:21;;;;;;;29.38;19.83;;;9.80;99.90;;;;;;5069246;28;20044;-68
2022/04/14 02:13:46;;;;;;;29.65;20.50;;;9.80;99.90;;;;;;5068600;28;20060;-68
2022/04/14 02:16:12;;;;;;;25.65;18.60;;;9.80;99.90;;;;;;5067486;28;20080;-68
2022/04/14 02:18:38;;;;;;;29.70;20.38;;;9.80;99.90;;;;;;5073365;28;20041;-68
2022/04/14 02:21:04;;;;;;;29.42;19.75;;;9.80;99.90;;;;;;5066428;28;20497;-68
2022/04/14 02:23:29;;;;;;;28.98;20.58;;;9.70;99.90;;;;;;5068262;28;20045;-68
2022/04/14 02:25:56;;;;;;;28.45;18.38;;;9.70;99.90;;;;;;5069330;28;20446;-68
2022/04/14 02:28:22;;;;;;;25.88;19.80;;;9.70;99.90;;;;;;5069790;28;20059;-67
2022/04/14 02:30:48;;;;;;;30.60;19.50;;;9.60;99.90;;;;;;5069064;28;20056;-68
2022/04/14 02:33:14;;;;;;;29.85;18.88;;;9.60;99.90;;;;;;5070143;28;20413;-68
2022/04/14 02:35:40;;;;;;;28.85;18.50;;;9.60;99.90;;;;;;5068853;28;20052;-68
2022/04/14 02:38:06;;;;;;;24.85;18.40;;;9.50;99.90;;;;;;5068687;28;20071;-68
2022/04/14 02:40:32;;;;;;;25.70;19.15;;;9.50;99.90;;;;;;5069452;28;20047;-68
2022/04/14 02:42:57;;;;;;;29.27;21.77;;;9.50;99.90;;;;;;5071627;28;20127;-68
2022/04/14 02:45:26;;;;;;;28.17;21.13;;;9.40;99.90;;;;;;5068980;28;20082;-68
2022/04/14 02:47:53;;;;;;;37.40;24.98;;;9.40;99.90;;;;;;5069512;28;20498;-67
2022/04/14 02:50:20;;;;;;;39.75;23.88;;;9.40;99.90;;;;;;5067336;28;20044;-68
2022/04/14 02:52:47;;;;;;;39.00;26.90;;;9.40;99.90;;;;;;5068973;28;20400;-68
2022/04/14 02:55:13;;;;;;;32.50;25.05;;;9.30;99.90;;;;;;5069170;28;20383;-68
2022/04/14 02:57:39;;;;;;;43.22;27.13;;;9.30;99.90;;;;;;5068083;28;20044;-68
2022/04/14 03:00:11;;;;;;;39.03;25.95;;;9.30;99.90;;;;;;5067819;28;20044;-67
2022/04/14 03:02:40;;;;;;;30.52;24.33;;;9.30;99.90;;;;;;5067129;28;20044;-68
2022/04/14 03:05:07;;;;;;;39.95;25.38;;;9.30;99.90;;;;;;5066909;28;20049;-68
2022/04/14 03:07:34;;;;;;;37.50;26.63;;;9.20;99.90;;;;;;5066981;28;20155;-68
2022/04/14 03:09:59;;;;;;;36.40;27.35;;;9.20;99.90;;;;;;5068480;28;20673;-68
2022/04/14 03:12:25;;;;;;;38.72;27.50;;;9.20;99.90;;;;;;5067876;28;20123;-68
2022/04/14 03:14:51;;;;;;;38.20;27.15;;;9.20;99.90;;;;;;5071316;28;20037;-68
2022/04/14 03:17:17;;;;;;;39.75;28.38;;;9.20;99.90;;;;;;5067792;28;20048;-68
2022/04/14 03:19:43;;;;;;;40.72;27.08;;;9.20;99.90;;;;;;5066644;28;20032;-67
2022/04/14 03:22:08;;;;;;;43.38;32.17;;;9.10;99.90;;;;;;5067992;28;20037;-68
2022/04/14 03:24:34;;;;;;;36.63;28.38;;;9.10;99.90;;;;;;5067924;28;20926;-68
2022/04/14 03:27:00;;;;;;;35.85;28.33;;;9.10;99.90;;;;;;5049923;28;20048;-68
2022/04/14 03:29:32;;;;;;;44.15;30.98;;;9.10;99.90;;;;;;5067515;28;20123;-68
2022/04/14 03:31:58;;;;;;;42.15;29.65;;;9.10;99.90;;;;;;5067445;28;20040;-68
2022/04/14 03:34:24;;;;;;;46.20;32.42;;;9.10;99.90;;;;;;5068854;28;20090;-68
2022/04/14 03:36:51;;;;;;;42.08;30.40;;;9.00;99.90;;;;;;5068740;28;20052;-68
2022/04/14 03:39:17;;;;;;;41.25;29.58;;;9.00;99.90;;;;;;5069623;28;20123;-68
2022/04/14 03:41:43;;;;;;;48.05;32.42;;;9.00;99.90;;;;;;5071760;28;20048;-68
2022/04/14 03:44:08;;;;;;;40.53;29.95;;;9.00;99.90;;;;;;5072438;28;20489;-68
2022/04/14 03:46:34;;;;;;;43.08;31.17;;;9.00;99.90;;;;;;5070673;28;20087;-68
2022/04/14 03:49:00;;;;;;;46.42;27.23;;;8.90;99.90;;;;;;5072414;28;20052;-68
2022/04/14 03:51:25;;;;;;;46.60;29.98;;;8.90;99.90;;;;;;5072352;28;20053;-68
2022/04/14 03:53:52;;;;;;;44.03;30.27;;;8.90;99.90;;;;;;5072254;28;20040;-68
2022/04/14 03:56:17;;;;;;;40.00;29.63;;;8.90;99.90;;;;;;5072436;28;20049;-68
2022/04/14 03:58:43;;;;;;;46.60;28.45;;;8.90;99.90;;;;;;5072056;28;20132;-68
2022/04/14 04:01:08;;;;;;;40.65;30.52;;;8.90;99.90;;;;;;5071536;28;20478;-68
2022/04/14 04:03:34;;;;;;;41.45;28.55;;;8.80;99.90;;;;;;5071861;28;20519;-68
2022/04/14 04:06:00;;;;;;;43.42;31.70;;;8.80;99.90;;;;;;5071039;28;20040;-68
2022/04/14 04:08:25;;;;;;;44.55;29.67;;;8.80;99.90;;;;;;5070259;28;20857;-68
2022/04/14 04:10:51;;;;;;;34.65;28.00;;;8.80;99.90;;;;;;5077151;28;20087;-68
2022/04/14 04:13:16;;;;;;;46.53;31.17;;;8.70;99.90;;;;;;5071517;28;20045;-68
2022/04/14 04:15:42;;;;;;;45.75;32.08;;;8.70;99.90;;;;;;5069296;28;20047;-67
2022/04/14 04:18:08;;;;;;;39.05;29.13;;;8.70;99.90;;;;;;5070625;28;20044;-68
2022/04/14 04:20:33;;;;;;;42.25;30.17;;;8.70;99.90;;;;;;5069956;28;20139;-68
2022/04/14 04:23:02;;;;;;;38.92;30.38;;;8.70;99.90;;;;;;5070212;28;20071;-68
2022/04/14 04:25:28;;;;;;;42.22;28.85;;;8.60;99.90;;;;;;5070690;28;20044;-67
2022/04/14 04:27:54;;;;;;;47.67;32.92;;;8.60;99.90;;;;;;5071522;28;20051;-68
2022/04/14 04:30:19;;;;;;;40.42;30.67;;;8.60;99.90;;;;;;5070259;28;20668;-68
2022/04/14 04:32:45;;;;;;;37.83;29.05;;;8.60;99.90;;;;;;5067186;28;20036;-68
2022/04/14 04:35:11;;;;;;;45.22;31.90;;;8.60;99.90;;;;;;5071150;28;20064;-68
2022/04/14 04:37:37;;;;;;;39.42;30.33;;;8.50;99.90;;;;;;5057020;28;20044;-68
2022/04/14 04:40:04;;;;;;;44.95;33.05;;;8.50;99.90;;;;;;5051889;28;20109;-67
2022/04/14 04:42:31;;;;;;;49.58;33.72;;;8.50;99.90;;;;;;5052184;28;20041;-66
2022/04/14 04:44:56;;;;;;;40.35;31.33;;;8.40;99.90;;;;;;5086360;28;20445;-67
2022/04/14 04:47:22;;;;;;;49.83;32.45;;;8.40;99.90;;;;;;5056996;28;20049;-67
2022/04/14 04:49:48;;;;;;;48.80;35.60;;;8.40;99.90;;;;;;5065658;28;20045;-67
2022/04/14 04:52:15;;;;;;;43.92;32.92;;;8.40;99.90;;;;;;5070218;28;20456;-67
2022/04/14 04:54:40;;;;;;;50.92;36.38;;;8.40;99.90;;;;;;5068645;28;20131;-67
2022/04/14 04:57:06;;;;;;;53.17;38.38;;;8.30;99.90;;;;;;5069945;28;20190;-67
2022/04/14 04:59:33;;;;;;;62.05;38.78;;;8.30;99.90;;;;;;5064639;28;20425;-67
2022/04/14 05:01:59;;;;;;;54.28;38.88;;;8.30;99.90;;;;;;5066457;28;20047;-67
2022/04/14 05:04:25;;;;;;;72.85;44.33;;;8.30;99.90;;;;;;5070559;28;20048;-67
2022/04/14 05:06:51;;;;;;;80.85;52.72;;;8.30;99.90;;;;;;5069740;28;20037;-67
2022/04/14 05:09:16;;;;;;;68.35;47.13;;;8.40;99.90;;;;;;5069921;28;20048;-67
2022/04/14 05:11:42;;;;;;;64.90;47.80;;;8.40;99.90;;;;;;5069053;28;20151;-67
2022/04/14 05:14:09;;;;;;;66.45;44.10;;;8.30;99.90;;;;;;5069686;28;20054;-67
2022/04/14 05:16:35;;;;;;;63.17;43.75;;;8.40;99.90;;;;;;5064737;28;20508;-66
2022/04/14 05:19:00;;;;;;;69.82;48.00;;;8.40;99.90;;;;;;5068564;28;20047;-67
2022/04/14 05:21:26;;;;;;;66.45;44.55;;;8.40;99.90;;;;;;5069613;28;20037;-68
2022/04/14 05:23:52;;;;;;;61.63;40.50;;;8.40;99.90;;;;;;5069905;28;20580;-68
2022/04/14 05:26:18;;;;;;;54.92;41.35;;;8.40;99.90;;;;;;5055789;28;20041;-67
2022/04/14 05:28:44;;;;;;;56.05;40.75;;;8.30;99.90;;;;;;5063099;28;20048;-68
2022/04/14 05:31:10;;;;;;;49.85;39.28;;;8.30;99.90;;;;;;5051659;28;20052;-67
2022/04/14 05:33:35;;;;;;;55.63;40.20;;;8.30;99.90;;;;;;5069761;28;20070;-68
2022/04/14 05:36:01;;;;;;;56.15;37.70;;;8.30;99.90;;;;;;5057343;28;20048;-69
2022/04/14 05:38:27;;;;;;;45.15;35.67;;;8.30;99.90;;;;;;5067705;28;20094;-68
2022/04/14 05:40:54;;;;;;;47.03;33.85;;;8.40;99.90;;;;;;5058814;28;20098;-68
2022/04/14 05:43:26;;;;;;;43.72;34.40;;;8.40;99.90;;;;;;5065533;28;20048;-68
2022/04/14 05:45:52;;;;;;;40.08;31.48;;;8.50;99.90;;;;;;5062693;28;20075;-69
2022/04/14 05:48:19;;;;;;;42.88;33.08;;;8.60;99.90;;;;;;5057352;28;20044;-67
2022/04/14 05:50:46;;;;;;;47.17;32.53;;;8.70;99.90;;;;;;5065973;28;20566;-68
2022/04/14 05:53:12;;;;;;;48.97;35.72;;;8.80;99.90;;;;;;5062913;28;20045;-67
2022/04/14 05:55:39;;;;;;;48.03;36.47;;;8.80;99.90;;;;;;5048046;28;20056;-68
2022/04/14 05:58:06;;;;;;;52.67;38.77;;;8.90;99.90;;;;;;5060185;28;20048;-68
2022/04/14 06:00:33;;;;;;;57.85;38.63;;;9.10;99.90;;;;;;5068331;28;20070;-68
2022/04/14 06:03:00;;;;;;;52.17;39.97;;;9.10;99.90;;;;;;5068826;28;20071;-68
2022/04/14 06:05:27;;;;;;;63.92;45.97;;;9.30;99.90;;;;;;5069947;28;20067;-67
2022/04/14 06:07:53;;;;;;;58.95;43.70;;;9.40;99.90;;;;;;5070502;28;20055;-68
2022/04/14 06:10:22;;;;;;;65.45;47.90;;;9.50;99.90;;;;;;5068693;28;20064;-68
2022/04/14 06:12:49;;;;;;;62.63;43.47;;;9.70;99.90;;;;;;5069633;28;20040;-68
2022/04/14 06:15:15;;;;;;;69.55;49.72;;;9.80;99.90;;;;;;5062663;28;20047;-68
2022/04/14 06:17:42;;;;;;;62.47;45.22;;;10.00;99.90;;;;;;5067594;28;20060;-68
2022/04/14 06:20:08;;;;;;;74.93;46.15;;;10.10;99.90;;;;;;5062455;28;20056;-68
2022/04/14 06:22:38;;;;;;;78.03;53.03;;;10.30;99.90;;;;;;5062738;28;20037;-68
2022/04/14 06:25:05;;;;;;;82.25;50.42;;;10.50;99.90;;;;;;5069908;28;20086;-68
2022/04/14 06:27:32;;;;;;;69.57;49.60;;;10.60;99.90;;;;;;5058342;28;20123;-68
2022/04/14 06:29:57;;;;;;;74.30;50.17;;;10.80;99.90;;;;;;5058633;28;20049;-68
2022/04/14 06:32:23;;;;;;;66.90;49.53;;;10.90;99.90;;;;;;5062859;28;20048;-68
2022/04/14 06:34:48;;;;;;;75.68;52.97;;;11.00;99.90;;;;;;5061622;28;20036;-68
2022/04/14 06:37:14;;;;;;;69.47;51.88;;;11.10;99.90;;;;;;5049507;28;20540;-68
2022/04/14 06:39:40;;;;;;;71.38;52.35;;;11.30;99.90;;;;;;5048670;28;20048;-68
2022/04/14 06:42:06;;;;;;;67.22;50.45;;;11.40;99.90;;;;;;5048776;28;20095;-68
2022/04/14 06:44:32;;;;;;;71.28;49.55;;;11.50;99.90;;;;;;5064598;28;20048;-74
2022/04/14 06:46:58;;;;;;;69.03;47.35;;;11.60;99.90;;;;;;5051065;28;20051;-74
2022/04/14 06:49:24;;;;;;;75.68;52.05;;;11.70;99.90;;;;;;5067464;28;20083;-71
2022/04/14 06:51:50;;;;;;;82.78;54.53;;;11.90;99.90;;;;;;5067758;28;20076;-72
2022/04/14 06:54:17;;;;;;;82.30;50.95;;;12.00;99.90;;;;;;5058318;28;20684;-73
2022/04/14 06:56:42;;;;;;;74.95;50.65;;;12.20;99.90;;;;;;5069934;28;20510;-72
2022/04/14 06:59:08;;;;;;;71.03;48.22;;;12.40;99.90;;;;;;5069128;28;20060;-72
2022/04/14 07:01:34;;;;;;;64.13;48.05;;;12.70;99.90;;;;;;5067856;28;20494;-71
2022/04/14 07:03:59;;;;;;;65.80;46.65;;;13.00;99.90;;;;;;5045163;28;20048;-72
2022/04/14 07:06:25;;;;;;;63.65;44.20;;;13.30;99.90;;;;;;5068827;28;20045;-72
2022/04/14 07:08:51;;;;;;;65.93;46.38;;;13.40;99.90;;;;;;5068070;28;20408;-72
2022/04/14 07:11:17;;;;;;;60.70;42.72;;;13.70;99.90;;;;;;5067511;28;20131;-73
2022/04/14 07:13:42;;;;;;;55.72;39.60;;;14.00;99.90;;;;;;5069852;28;20055;-73
2022/04/14 07:16:08;;;;;;;60.83;42.08;;;14.30;99.90;;;;;;5062942;28;20081;-73
2022/04/14 07:18:34;;;;;;;58.97;39.47;;;14.50;99.90;;;;;;5062430;28;20047;-72
2022/04/14 07:20:59;;;;;;;57.67;39.15;;;14.70;99.90;;;;;;5056173;28;20055;-72
2022/04/14 07:23:25;;;;;;;58.50;40.63;;;14.90;99.90;;;;;;5072473;28;20044;-73
2022/04/14 07:25:51;;;;;;;54.25;38.67;;;15.10;99.90;;;;;;5072385;28;20089;-74
2022/04/14 07:28:17;;;;;;;57.17;37.13;;;15.30;99.90;;;;;;5073279;28;20086;-72
2022/04/14 07:30:42;;;;;;;48.88;35.53;;;15.50;99.90;;;;;;5064119;28;20193;-72
2022/04/14 07:33:08;;;;;;;41.83;31.30;;;15.60;99.90;;;;;;5053368;28;20056;-72
2022/04/14 07:35:34;;;;;;;48.85;31.90;;;15.80;99.90;;;;;;5053671;28;20170;-71
2022/04/14 07:38:00;;;;;;;53.90;32.05;;;16.10;99.90;;;;;;5051612;28;20119;-72
2022/04/14 07:40:26;;;;;;;40.97;28.80;;;16.30;99.90;;;;;;5054416;28;20057;-72
2022/04/14 07:42:55;;;;;;;44.85;29.52;;;16.50;99.90;;;;;;5073281;28;20546;-72
2022/04/14 07:45:21;;;;;;;38.53;28.08;;;16.70;99.90;;;;;;5066297;28;20083;-72
2022/04/14 07:47:47;;;;;;;37.30;27.25;;;16.90;99.90;;;;;;5072107;28;20044;-72
2022/04/14 07:50:21;;;;;;;39.67;27.77;;;16.90;99.90;;;;;;5071664;28;20410;-72
2022/04/14 07:52:49;;;;;;;40.13;29.75;;;16.90;99.90;;;;;;5066445;28;20052;-73
2022/04/14 07:55:34;;;;;;;43.47;29.35;;;17.10;99.90;;;;;;5068811;28;20523;-73
2022/04/14 07:58:04;;;;;;;38.80;30.40;;;17.30;99.90;;;;;;5068861;28;20048;-72
2022/04/14 08:00:30;;;;;;;37.00;28.45;;;17.60;99.90;;;;;;5072481;28;20053;-72
2022/04/14 08:03:00;;;;;;;36.92;29.25;;;17.60;99.90;;;;;;5071175;28;20040;-73
2022/04/14 08:05:38;;;;;;;37.03;29.08;;;17.60;99.90;;;;;;5068613;28;20047;-72
2022/04/14 08:08:07;;;;;;;42.20;28.73;;;17.70;99.90;;;;;;5070015;28;20045;-73
2022/04/14 08:10:33;;;;;;;36.13;25.60;;;17.70;99.90;;;;;;5068769;28;20052;-72
2022/04/14 08:12:59;;;;;;;37.75;26.73;;;17.90;99.90;;;;;;5067876;28;20099;-69
2022/04/14 08:15:27;;;;;;;43.42;26.42;;;18.10;99.90;;;;;;5070529;28;20045;-71
2022/04/14 08:17:53;;;;;;;;;;;18.30;99.90;;;;;;5069903;28;20098;-72
2022/04/14 08:20:18;;;;;;;35.67;26.98;;;18.50;99.90;;;;;;5070244;28;19936;-72
2022/04/14 08:22:48;;;;;;;34.35;24.58;;;18.60;99.90;;;;;;5070327;28;20059;-72
2022/04/14 08:25:16;;;;;;;38.97;25.65;;;18.70;99.90;;;;;;5069192;28;20044;-73
2022/04/14 08:27:43;;;;;;;28.42;23.95;;;18.80;99.90;;;;;;5068565;28;20539;-73
2022/04/14 08:30:09;;;;;;;31.87;22.63;;;19.10;99.90;;;;;;5068487;28;20051;-73
2022/04/14 08:32:35;;;;;;;30.08;22.42;;;19.30;99.90;;;;;;5053945;28;20049;-72
2022/04/14 08:35:02;;;;;;;29.17;21.42;;;19.40;99.90;;;;;;5063139;28;20052;-71
2022/04/14 08:37:28;;;;;;;26.67;19.70;;;19.60;99.90;;;;;;5069724;28;20501;-73
2022/04/14 08:39:54;;;;;;;26.55;21.45;;;19.70;99.90;;;;;;5071352;28;20052;-73
2022/04/14 08:42:26;;;;;;;32.20;20.80;;;19.70;99.90;;;;;;5054144;28;20828;-73
2022/04/14 08:45:02;;;;;;;24.23;18.73;;;19.60;99.90;;;;;;5049949;28;20049;-73
2022/04/14 08:47:29;;;;;;;25.33;19.65;;;19.70;99.70;;;;;;5050154;28;20085;-73
2022/04/14 08:49:57;;;;;;;24.85;18.98;;;19.90;99.90;;;;;;5069074;28;20048;-73
2022/04/14 08:52:24;;;;;;;23.55;18.23;;;19.90;99.90;;;;;;5069535;28;20055;-73
2022/04/14 08:54:50;;;;;;;22.92;18.40;;;20.20;99.90;;;;;;5053555;28;20052;-73
2022/04/14 08:57:17;;;;;;;26.77;17.95;;;20.30;99.90;;;;;;5057433;28;20125;-72
2022/04/14 08:59:44;;;;;;;26.50;20.15;;;20.50;99.90;;;;;;5068927;28;20462;-72
2022/04/14 09:02:17;;;;;;;26.42;19.23;;;20.30;94.60;;;;;;5070976;28;20513;-72
2022/04/14 09:04:43;;;;;;;25.70;20.23;;;20.20;93.90;;;;;;5056686;28;20052;-72
2022/04/14 09:07:11;;;;;;;30.25;21.05;;;20.00;93.00;;;;;;5072638;28;20060;-69
2022/04/14 09:09:38;;;;;;;29.27;20.13;;;20.00;90.40;;;;;;5071358;28;20095;-71
2022/04/14 09:12:05;;;;;;;26.88;20.40;;;19.90;90.40;;;;;;5069540;28;20045;-75
2022/04/14 09:14:34;;;;;;;30.20;21.92;;;20.10;89.40;;;;;;5051888;28;20082;-73
2022/04/14 09:17:01;;;;;;;27.92;22.00;;;19.90;88.30;;;;;;5074441;28;20501;-72
2022/04/14 09:19:30;;;;;;;25.77;20.45;;;20.10;86.70;;;;;;5067328;28;20052;-73
2022/04/14 09:21:58;;;;;;;27.63;18.65;;;20.20;89.60;;;;;;5069229;28;20036;-73
2022/04/14 09:24:50;;;;;;;27.38;20.00;;;20.40;88.90;;;;;;5064012;28;20051;-69
2022/04/14 09:27:37;;;;;;;31.55;22.08;;;20.50;81.20;;;;;;5051319;28;20040;-70
2022/04/14 09:30:06;;;;;;;28.60;19.25;;;20.30;76.60;;;;;;5070247;28;20067;-70
2022/04/14 09:32:42;;;;;;;28.98;21.75;;;20.40;87.00;;;;;;5060967;28;20055;-69
2022/04/14 09:35:22;;;;;;;28.45;20.50;;;20.20;81.00;;;;;;5069681;28;20055;-70
2022/04/14 09:38:03;;;;;;;33.17;23.33;;;20.20;82.30;;;;;;5064257;28;20506;-68
2022/04/14 09:40:30;;;;;;;22.63;18.23;;;20.20;83.60;;;;;;5070903;28;20049;-72
2022/04/14 09:42:57;;;;;;;23.50;17.98;;;20.10;84.00;;;;;;5069956;28;20928;-72
2022/04/14 09:45:25;;;;;;;29.15;21.55;;;20.30;86.00;;;;;;5064742;28;20096;-73
2022/04/14 09:47:55;;;;;;;30.42;20.80;;;20.40;83.10;;;;;;5059076;28;20123;-71
2022/04/14 09:50:35;;;;;;;27.85;20.10;;;20.30;83.10;;;;;;5070670;28;20076;-72
2022/04/14 09:53:01;;;;;;;29.95;20.15;;;20.30;76.30;;;;;;5066448;28;20673;-72
2022/04/14 09:55:28;;;;;;;27.23;22.10;;;20.40;83.40;;;;;;5066949;28;20114;-72
2022/04/14 09:58:07;;;;;;;26.15;18.90;;;20.40;81.60;;;;;;5063137;28;20036;-72
2022/04/14 10:00:53;;;;;;;21.83;19.17;;;20.50;78.00;;;;;;5068014;28;20052;-73
2022/04/14 10:03:20;;;;;;;27.90;21.13;;;20.40;76.70;;;;;;5068860;28;20501;-73
2022/04/14 10:05:48;;;;;;;28.80;20.58;;;20.30;76.30;;;;;;5071189;28;20044;-73
2022/04/14 10:08:15;;;;;;;26.27;20.27;;;20.20;79.40;;;;;;5089357;28;20048;-73
2022/04/14 10:10:42;;;;;;;24.48;19.13;;;20.10;80.60;;;;;;5059442;28;20861;-71
2022/04/14 10:13:10;;;;;;;24.88;20.02;;;20.00;81.40;;;;;;5069950;28;20049;-71
2022/04/14 10:15:41;;;;;;;20.48;17.50;;;19.80;79.10;;;;;;5069170;28;20048;-72
2022/04/14 10:18:09;;;;;;;25.42;18.17;;;19.80;79.50;;;;;;5068908;28;20129;-72
2022/04/14 10:20:37;;;;;;;26.65;20.30;;;19.90;79.30;;;;;;5068876;28;20409;-72
2022/04/14 10:23:04;;;;;;;29.67;22.08;;;19.70;79.10;;;;;;5070706;28;20051;-71
2022/04/14 10:25:30;;;;;;;25.48;18.45;;;19.70;78.60;;;;;;5068348;28;20071;-72
2022/04/14 10:28:00;;;;;;;24.65;17.80;;;19.60;81.10;;;;;;5050755;28;20084;-72
2022/04/14 10:30:27;;;;;;;25.00;17.83;;;19.40;77.50;;;;;;5051205;28;20136;-72
2022/04/14 10:32:55;;;;;;;;;;;19.30;80.50;;;;;;5065858;28;20044;-74
2022/04/14 10:35:28;;;;;;;20.05;16.67;;;19.20;79.10;;;;;;5067980;28;19928;-74
2022/04/14 10:38:05;;;;;;;22.58;16.20;;;18.80;79.60;;;;;;5067682;28;20155;-74
2022/04/14 10:40:33;;;;;;;21.17;16.03;;;19.20;81.60;;;;;;5068905;28;20056;-72
2022/04/14 10:42:59;;;;;;;19.95;17.23;;;19.40;82.50;;;;;;5066048;28;20083;-74
2022/04/14 10:45:26;;;;;;;24.88;17.98;;;19.60;79.40;;;;;;5068122;28;20136;-75
2022/04/14 10:47:56;;;;;;;17.48;14.73;;;19.60;77.40;;;;;;5068094;28;20044;-74
2022/04/14 10:50:32;;;;;;;26.27;17.48;;;19.50;78.80;;;;;;5066361;28;20490;-74
2022/04/14 10:53:07;;;;;;;29.23;17.67;;;19.50;77.00;;;;;;5064822;28;20048;-75
2022/04/14 10:55:36;;;;;;;19.85;15.38;;;19.60;76.80;;;;;;5069435;28;20155;-75
2022/04/14 10:58:02;;;;;;;25.63;14.07;;;19.60;77.30;;;;;;5062220;28;20052;-75
2022/04/14 11:00:35;;;;;;;22.38;13.13;;;19.60;79.60;;;;;;5068940;28;20505;-75
2022/04/14 11:03:12;;;;;;;18.17;12.55;;;19.50;76.10;;;;;;5036151;28;20041;-75
2022/04/14 11:05:48;;;;;;;16.55;12.23;;;19.50;75.50;;;;;;5069057;28;20048;-75
2022/04/14 11:08:28;;;;;;;18.08;12.90;;;19.80;77.40;;;;;;5068785;28;20131;-75
2022/04/14 11:11:12;;;;;;;13.90;12.35;;;20.00;75.80;;;;;;5069615;28;20045;-74
2022/04/14 11:14:07;;;;;;;16.77;13.02;;;20.30;74.90;;;;;;5068567;28;20115;-76
2022/04/14 11:16:47;;;;;;;20.27;11.27;;;20.30;71.50;;;;;;5063564;28;20052;-74
2022/04/14 11:19:21;;;;;;;16.40;11.40;;;20.30;73.40;;;;;;5069057;28;20080;-75
2022/04/14 11:22:02;;;;;;;13.15;9.10;;;20.30;72.40;;;;;;5078059;28;20048;-76
2022/04/14 11:24:36;;;;;;;19.02;12.38;;;20.20;71.60;;;;;;5071596;28;20052;-74
2022/04/14 11:27:18;;;;;;;21.10;12.52;;;20.10;72.10;;;;;;5068666;28;20084;-75
2022/04/14 11:29:49;;;;;;;15.10;8.90;;;20.20;73.30;;;;;;5058205;28;20379;-76
2022/04/14 11:32:33;;;;;;;12.48;7.53;;;20.50;75.20;;;;;;5062997;28;20041;-76
2022/04/14 11:35:13;;;;;;;12.95;7.07;;;20.70;73.10;;;;;;5061680;28;20057;-75
2022/04/14 11:37:49;;;;;;;12.27;8.85;;;20.90;70.90;;;;;;5066069;28;20053;-75
2022/04/14 11:40:21;;;;;;;7.78;6.93;;;20.90;65.90;;;;;;5067298;28;20123;-74
2022/04/14 11:42:57;;;;;;;10.00;7.40;;;20.90;68.90;;;;;;5064617;28;20513;-73
2022/04/14 11:45:30;;;;;;;9.32;7.43;;;20.70;68.80;;;;;;5062087;28;20076;-73
2022/04/14 11:48:03;;;;;;;9.48;6.93;;;20.60;69.80;;;;;;5060535;28;20080;-73
2022/04/14 11:50:32;;;;;;;9.27;6.78;;;20.40;70.90;;;;;;5066858;28;20046;-74
2022/04/14 11:52:59;;;;;;;10.23;5.88;;;20.40;70.20;;;;;;5065619;28;20039;-72
2022/04/14 11:55:39;;;;;;;9.82;6.18;;;20.50;69.30;;;;;;5068939;28;20131;-73
2022/04/14 11:58:13;;;;;;;9.27;5.72;;;20.50;68.90;;;;;;5065289;28;20044;-73
2022/04/14 12:00:49;;;;;;;8.40;6.13;;;20.40;69.20;;;;;;5068126;28;20053;-73
2022/04/14 12:03:28;;;;;;;8.52;6.68;;;20.20;70.10;;;;;;5057919;28;20402;-72
2022/04/14 12:05:54;;;;;;;10.15;5.38;;;20.20;71.00;;;;;;5051690;28;20128;-73
2022/04/14 12:08:20;;;;;;;8.52;6.25;;;20.10;70.50;;;;;;5072450;28;20178;-72
2022/04/14 12:10:46;;;;;;;14.90;7.13;;;20.10;70.20;;;;;;5072632;28;20044;-71
2022/04/14 12:13:12;;;;;;;7.70;5.65;;;20.00;69.50;;;;;;5070371;28;20045;-73
2022/04/14 12:15:38;;;;;;;13.90;7.07;;;20.10;69.90;;;;;;5070630;28;20151;-72
2022/04/14 12:18:06;;;;;;;20.92;6.78;;;19.90;67.80;;;;;;5071982;28;20045;-72
2022/04/14 12:20:40;;;;;;;11.52;5.30;;;19.90;68.70;;;;;;5071405;28;20043;-71
2022/04/14 12:23:11;;;;;;;6.32;4.90;;;19.80;69.10;;;;;;5071607;28;20417;-73
2022/04/14 12:25:37;;;;;;;7.30;5.10;;;19.80;68.80;;;;;;5071529;28;20406;-72
2022/04/14 12:28:06;;;;;;;4.20;3.25;;;19.80;68.00;;;;;;5069571;28;20051;-72
2022/04/14 12:30:33;;;;;;;7.90;4.78;;;19.70;67.70;;;;;;5069575;28;20457;-71
2022/04/14 12:33:07;;;;;;;9.07;4.28;;;19.60;69.00;;;;;;5068766;28;20048;-72
2022/04/14 12:35:32;;;;;;;7.50;3.85;;;19.80;69.10;;;;;;5069652;28;20055;-72
2022/04/14 12:38:24;;;;;;;4.55;3.70;;;19.90;68.70;;;;;;5069677;28;20229;-72